Strona główna
METAR-TAF:

METAR-TAF

Lotnisko :

Campos, Rio de Janeiro, Brazylia

Szerokość geograficzna: 21-45S, Długość geograficzna: 041-20W, wysokość: 11 m

Aktualna obserwacja pogody

Raport powstał 16 minut temu, godzina 19:00 UTC
Wiatr 18 kt od wschód
Temperatura 31°C
Wilgotność 55%
Ciśnienie 1012 hPa
Widzialność 10 km lub więcej
Brak chmur poniżej 1500 m i brak chmur cumulonimbus

METAR: SBCP 251900Z 08018KT CAVOK 31/21 Q1012

czas: 16:16 (19:16 UTC)

Prognoza

Raport powstał 4 godziny i 16 minut temu, godzina 15:00 UTC
Prognoza ważna od 25 godzina 18 UTC do 26 godzina 06 UTC
Wiatr 15 kt od wschodnio-północny wschód
Widzialność 10 km lub więcej
Mało chmury na wysokości 2000 ft

TAF: SBCP 251500Z 2518/2606 07015KT 9999 FEW020 TX30/2519Z TN25/2606Z RMK PGY

Obserwacja i prognoza pogody dla ponad 4000 lotnisk (raport METAR i TAF).

Dostępne stacje oznaczono żółtymi i czerwonymi punktami na mapie.

Najedź kursorem aby zobaczyć nazwę stacji.

Kliknij aby zobaczyć obserwacje i prognozy pogody.

Aby zmienić mapę: kliknij na zielony przycisk z czarnym krzyżykiem, aby powiększyć; na zielony przycisk z myślnikiem, aby pomniejszyć; na zielone strzałki, aby przejść do map sąsiednich.


METAR-TAF: